createdAt,value
2023-01-03T00:00:18.858Z,4.57
2023-01-03T00:02:45.507Z,10.90
2023-01-03T00:05:12.059Z,5.32
2023-01-03T00:07:38.853Z,4.35
2023-01-03T00:10:09.594Z,3.72
2023-01-03T00:12:38.093Z,16.42
2023-01-03T00:15:05.185Z,6.85
2023-01-03T00:17:31.755Z,2.60
2023-01-03T00:19:58.423Z,14.45
2023-01-03T00:22:25.025Z,6.88
2023-01-03T00:24:53.204Z,29.38
2023-01-03T00:27:19.830Z,48.17
2023-01-03T00:29:46.459Z,49.97
2023-01-03T00:32:13.794Z,13.73
2023-01-03T00:34:43.175Z,6.30
2023-01-03T00:37:10.046Z,4.57
2023-01-03T00:39:36.574Z,6.40
2023-01-03T00:42:03.205Z,4.05
2023-01-03T00:44:29.788Z,4.63
2023-01-03T00:46:56.347Z,4.97
2023-01-03T00:49:22.924Z,4.85
2023-01-03T00:51:50.063Z,10.05
2023-01-03T00:54:16.854Z,4.30
2023-01-03T00:56:46.094Z,7.72
2023-01-03T00:59:14.433Z,6.07
2023-01-03T01:01:47.069Z,4.25
2023-01-03T01:04:17.587Z,8.00
2023-01-03T01:06:50.255Z,6.13
2023-01-03T01:09:21.953Z,3.33
2023-01-03T01:11:49.257Z,5.53
2023-01-03T01:14:20.264Z,4.78
2023-01-03T01:17:01.195Z,4.07
2023-01-03T01:19:36.551Z,5.40
2023-01-03T01:22:03.304Z,4.07
2023-01-03T01:24:30.531Z,4.95
2023-01-03T01:26:57.118Z,2.83
2023-01-03T01:29:24.080Z,4.90
2023-01-03T01:31:51.106Z,5.05
2023-01-03T01:34:17.843Z,6.50
2023-01-03T01:36:45.530Z,2.85
2023-01-03T01:39:21.043Z,3.35
2023-01-03T01:42:08.206Z,5.22
2023-01-03T01:45:03.059Z,4.07
2023-01-03T01:47:49.829Z,3.00
2023-01-03T01:50:44.508Z,6.05
2023-01-03T01:53:44.404Z,7.80
2023-01-03T01:56:19.265Z,8.10
2023-01-03T01:58:50.152Z,5.80
2023-01-03T02:01:19.111Z,6.82
2023-01-03T02:03:55.399Z,8.52
2023-01-03T02:06:24.104Z,9.57
2023-01-03T02:08:51.594Z,9.80
2023-01-03T02:11:30.337Z,4.97
2023-01-03T02:14:02.993Z,7.60
2023-01-03T02:16:48.553Z,9.15
2023-01-03T02:19:56.548Z,8.90
2023-01-03T02:22:23.026Z,14.90
2023-01-03T02:24:49.435Z,12.75
2023-01-03T02:27:27.832Z,10.25
2023-01-03T02:30:13.068Z,9.57
2023-01-03T02:32:42.895Z,7.38
2023-01-03T02:35:22.708Z,6.78
2023-01-03T02:38:02.270Z,7.13
2023-01-03T02:40:38.859Z,8.70
2023-01-03T02:43:24.599Z,7.75
2023-01-03T02:46:07.466Z,4.93
2023-01-03T02:48:55.599Z,11.45
2023-01-03T02:51:52.975Z,10.75
2023-01-03T02:54:27.472Z,18.73
2023-01-03T02:59:38.491Z,11.90
2023-01-03T03:02:07.032Z,7.90
2023-01-03T03:04:37.913Z,8.02
2023-01-03T03:07:09.405Z,10.77
2023-01-03T03:09:55.861Z,8.45
2023-01-03T03:12:43.896Z,10.48
2023-01-03T03:15:14.505Z,12.63
2023-01-03T03:17:42.803Z,11.43
2023-01-03T03:20:35.682Z,9.35
2023-01-03T03:23:27.378Z,7.68
2023-01-03T03:26:08.236Z,7.65
2023-01-03T03:28:38.427Z,9.13
2023-01-03T03:31:12.593Z,9.02
2023-01-03T03:33:45.246Z,8.95
2023-01-03T03:36:43.918Z,10.05
2023-01-03T03:39:32.658Z,10.80
2023-01-03T03:42:47.252Z,12.18
2023-01-03T03:45:22.397Z,9.70
2023-01-03T03:48:07.958Z,10.23
2023-01-03T03:50:43.283Z,7.80
2023-01-03T03:53:12.451Z,8.55
2023-01-03T03:55:47.767Z,11.10
2023-01-03T03:58:36.934Z,6.43
2023-01-03T04:01:04.933Z,6.80
2023-01-03T04:03:32.838Z,9.40
2023-01-03T04:06:06.352Z,7.38
2023-01-03T04:08:32.853Z,9.00
2023-01-03T04:11:08.633Z,8.60
2023-01-03T04:13:37.790Z,13.48
2023-01-03T04:16:05.679Z,7.95
2023-01-03T04:18:32.371Z,7.38
2023-01-03T04:20:58.972Z,8.68
2023-01-03T04:23:25.508Z,10.43
2023-01-03T04:25:52.699Z,5.78
2023-01-03T04:28:19.628Z,7.47
2023-01-03T04:30:46.698Z,5.45
2023-01-03T04:33:13.252Z,13.10
2023-01-03T04:35:39.855Z,7.63
2023-01-03T04:38:07.116Z,11.38
2023-01-03T04:40:35.002Z,13.40
2023-01-03T04:43:20.242Z,7.68
2023-01-03T04:45:50.337Z,9.65
2023-01-03T04:48:17.703Z,14.10
2023-01-03T04:50:58.659Z,8.43
2023-01-03T04:53:26.653Z,7.18
2023-01-03T04:55:56.680Z,6.43
2023-01-03T04:58:24.098Z,11.90
2023-01-03T05:00:50.882Z,13.27
2023-01-03T05:03:21.211Z,5.40
2023-01-03T05:05:52.867Z,9.15
2023-01-03T05:08:19.641Z,7.72
2023-01-03T05:10:46.139Z,7.88
2023-01-03T05:13:12.723Z,7.07
2023-01-03T05:15:39.791Z,9.52
2023-01-03T05:18:06.558Z,8.02
2023-01-03T05:20:54.745Z,8.15
2023-01-03T05:23:40.045Z,11.18
2023-01-03T05:26:13.743Z,9.15
2023-01-03T05:28:41.983Z,10.57
2023-01-03T05:31:08.577Z,5.65
2023-01-03T05:33:37.221Z,8.07
2023-01-03T05:36:03.995Z,9.82
2023-01-03T05:38:30.550Z,8.77
2023-01-03T05:40:57.126Z,11.55
2023-01-03T05:43:23.638Z,9.15
2023-01-03T05:45:51.955Z,7.25
2023-01-03T05:48:19.788Z,7.22
2023-01-03T05:50:46.871Z,7.13
2023-01-03T05:53:13.736Z,7.47
2023-01-03T05:55:40.372Z,11.43
2023-01-03T05:58:07.967Z,6.10
2023-01-03T06:00:35.042Z,15.10
2023-01-03T06:03:01.824Z,7.57
2023-01-03T06:05:28.344Z,8.98
2023-01-03T06:07:54.871Z,11.23
2023-01-03T06:10:21.536Z,10.55
2023-01-03T06:12:48.173Z,9.00
2023-01-03T06:15:14.651Z,13.23
2023-01-03T06:17:58.758Z,6.95
2023-01-03T06:20:29.090Z,15.50
2023-01-03T06:22:56.749Z,12.27
2023-01-03T06:25:23.572Z,14.20
2023-01-03T06:27:50.205Z,13.38
2023-01-03T06:30:16.902Z,14.07
2023-01-03T06:32:45.228Z,21.27
2023-01-03T06:35:11.993Z,15.13
2023-01-03T06:37:38.627Z,18.58
2023-01-03T06:40:06.069Z,16.10
2023-01-03T06:42:39.739Z,19.40
2023-01-03T06:45:25.604Z,17.65
2023-01-03T06:48:10.499Z,11.73
2023-01-03T06:53:24.498Z,21.27
2023-01-03T06:55:56.693Z,18.95
2023-01-03T06:58:24.080Z,16.52
2023-01-03T07:00:50.748Z,13.52
2023-01-03T07:03:17.241Z,15.57
2023-01-03T07:05:43.763Z,20.10
2023-01-03T07:08:10.279Z,17.83
2023-01-03T07:10:36.761Z,16.83
2023-01-03T07:13:22.281Z,19.83
2023-01-03T07:15:48.918Z,25.48
2023-01-03T07:18:15.411Z,18.73
2023-01-03T07:20:45.680Z,26.38
2023-01-03T07:23:13.190Z,23.50
2023-01-03T07:25:41.677Z,28.05
2023-01-03T07:28:11.070Z,20.98
2023-01-03T07:30:43.491Z,22.45
2023-01-03T07:33:11.964Z,21.02
2023-01-03T07:35:38.704Z,26.35
2023-01-03T07:38:06.211Z,22.70
2023-01-03T07:40:32.786Z,28.95
2023-01-03T07:43:17.878Z,14.90
2023-01-03T07:45:45.810Z,15.25
2023-01-03T07:48:13.250Z,20.83
2023-01-03T07:50:40.654Z,17.58
2023-01-03T07:53:08.783Z,21.98
2023-01-03T07:55:37.119Z,17.65
2023-01-03T07:58:04.033Z,14.77
2023-01-03T08:00:30.973Z,13.80
2023-01-03T08:02:57.579Z,13.13
2023-01-03T08:05:25.326Z,14.88
2023-01-03T08:07:52.855Z,14.27
2023-01-03T08:10:39.227Z,13.63
2023-01-03T08:13:18.223Z,11.27
2023-01-03T08:15:49.204Z,13.43
2023-01-03T08:18:26.773Z,14.85
2023-01-03T08:20:55.572Z,18.70
2023-01-03T08:23:26.111Z,8.98
2023-01-03T08:25:59.450Z,17.00
2023-01-03T08:28:25.960Z,19.20
2023-01-03T08:30:52.649Z,14.02
2023-01-03T08:33:20.275Z,14.25
2023-01-03T08:35:53.056Z,10.10
2023-01-03T08:38:25.201Z,9.45
2023-01-03T08:40:51.818Z,11.75
2023-01-03T08:43:18.662Z,11.40
2023-01-03T08:45:48.743Z,12.23
2023-01-03T08:48:16.690Z,7.80
2023-01-03T08:50:43.308Z,14.57
2023-01-03T08:53:09.879Z,13.38
2023-01-03T08:55:36.404Z,9.95
2023-01-03T08:58:02.949Z,12.50
2023-01-03T09:00:29.905Z,9.95
2023-01-03T09:03:00.525Z,17.65
2023-01-03T09:05:28.521Z,16.55
2023-01-03T09:07:55.805Z,13.35
2023-01-03T09:10:23.497Z,19.10
2023-01-03T09:12:50.579Z,12.65
2023-01-03T09:15:17.241Z,18.38
2023-01-03T09:17:45.311Z,17.88
2023-01-03T09:20:12.841Z,12.50
2023-01-03T09:22:39.855Z,12.93
2023-01-03T09:25:07.610Z,12.07
2023-01-03T09:27:34.303Z,9.73
2023-01-03T09:30:00.870Z,14.95
2023-01-03T09:32:27.518Z,18.48
2023-01-03T09:34:54.022Z,15.35
2023-01-03T09:37:20.597Z,16.90
2023-01-03T09:39:47.171Z,13.95
2023-01-03T09:42:44.971Z,11.85
2023-01-03T09:45:17.527Z,10.65
2023-01-03T09:47:45.974Z,9.27
2023-01-03T09:50:38.876Z,12.88
2023-01-03T09:53:38.099Z,10.60
2023-01-03T09:56:23.188Z,14.57
2023-01-03T09:59:12.948Z,16.50
2023-01-03T10:02:04.933Z,18.83
2023-01-03T10:04:50.097Z,17.17
2023-01-03T10:07:25.428Z,12.20
2023-01-03T10:10:10.511Z,14.63
2023-01-03T10:12:59.138Z,12.65
2023-01-03T10:15:40.193Z,14.70
2023-01-03T10:18:40.241Z,13.63
2023-01-03T10:21:16.324Z,12.95
2023-01-03T10:23:43.440Z,8.57
2023-01-03T10:26:13.171Z,13.45
2023-01-03T10:28:44.117Z,13.23
2023-01-03T10:31:28.889Z,8.45
2023-01-03T10:36:22.493Z,9.23
2023-01-03T10:39:02.098Z,18.30
2023-01-03T10:41:44.607Z,12.00
2023-01-03T10:44:25.609Z,17.85
2023-01-03T10:46:54.295Z,15.93
2023-01-03T10:49:31.270Z,9.43
2023-01-03T10:52:12.655Z,10.93
2023-01-03T10:54:59.501Z,10.20
2023-01-03T10:57:48.577Z,19.00
2023-01-03T11:00:28.433Z,9.32
2023-01-03T11:03:01.188Z,8.98
2023-01-03T11:05:28.091Z,9.38
2023-01-03T11:07:57.207Z,16.00
2023-01-03T11:10:30.095Z,12.98
2023-01-03T11:12:56.673Z,10.95
2023-01-03T11:15:37.936Z,11.18
2023-01-03T11:18:16.420Z,15.02
2023-01-03T11:20:48.748Z,7.15
2023-01-03T11:23:41.467Z,12.15
2023-01-03T11:26:26.479Z,9.23
2023-01-03T11:29:06.715Z,12.20
2023-01-03T11:31:42.128Z,15.18
2023-01-03T11:34:24.405Z,8.57
2023-01-03T11:37:15.592Z,8.82
2023-01-03T11:40:17.516Z,8.27
2023-01-03T11:43:22.396Z,8.20
2023-01-03T11:46:06.405Z,10.13
2023-01-03T11:48:52.976Z,6.90
2023-01-03T11:51:34.769Z,5.57
2023-01-03T11:54:09.182Z,6.63
2023-01-03T11:56:43.172Z,4.93
2023-01-03T11:59:27.951Z,8.38
2023-01-03T12:02:09.894Z,6.47
2023-01-03T12:04:42.319Z,8.57
2023-01-03T12:10:22.600Z,10.43
2023-01-03T12:12:54.953Z,5.35
2023-01-03T12:15:26.256Z,6.85
2023-01-03T12:18:16.971Z,5.45
2023-01-03T12:20:49.578Z,5.93
2023-01-03T12:23:33.906Z,8.73
2023-01-03T12:26:13.586Z,14.23
2023-01-03T12:28:49.990Z,7.15
2023-01-03T12:31:36.062Z,12.98
2023-01-03T12:34:30.493Z,9.23
2023-01-03T12:37:17.732Z,4.43
2023-01-03T12:39:55.444Z,5.45
2023-01-03T12:42:40.700Z,8.30
2023-01-03T12:45:34.630Z,8.75
2023-01-03T12:48:13.561Z,5.63
2023-01-03T12:50:47.231Z,5.72
2023-01-03T12:53:28.943Z,5.00
2023-01-03T12:56:04.982Z,10.00
2023-01-03T12:58:40.017Z,5.63
2023-01-03T13:01:24.377Z,10.85
2023-01-03T13:04:00.294Z,6.80
2023-01-03T13:06:35.693Z,6.60
2023-01-03T13:09:07.674Z,6.63
2023-01-03T13:11:39.559Z,8.25
2023-01-03T13:14:27.322Z,12.00
2023-01-03T13:16:56.507Z,6.10
2023-01-03T13:19:23.004Z,7.25
2023-01-03T13:21:55.786Z,7.57
2023-01-03T13:24:45.213Z,7.57
2023-01-03T13:27:18.150Z,5.88
2023-01-03T13:29:49.524Z,6.25
2023-01-03T13:32:22.371Z,8.88
2023-01-03T13:34:58.166Z,6.05
2023-01-03T13:37:54.870Z,5.55
2023-01-03T13:45:51.113Z,4.40
2023-01-03T13:48:17.569Z,6.72
2023-01-03T13:51:04.970Z,10.82
2023-01-03T13:53:38.039Z,7.13
2023-01-03T13:56:16.732Z,3.30
2023-01-03T13:59:05.476Z,5.78
2023-01-03T14:01:53.523Z,9.90
2023-01-03T14:04:53.508Z,11.25
2023-01-03T14:07:40.926Z,4.95
2023-01-03T14:10:18.972Z,10.43
2023-01-03T14:13:03.592Z,3.67
2023-01-03T14:15:32.312Z,10.82
2023-01-03T14:18:08.703Z,6.65
2023-01-03T14:20:36.921Z,6.45
2023-01-03T14:23:39.679Z,4.32
2023-01-03T14:26:04.688Z,6.03
2023-01-03T14:28:33.719Z,5.50
2023-01-03T14:31:16.206Z,6.43
2023-01-03T14:33:49.639Z,10.40
2023-01-03T14:36:17.688Z,6.05
2023-01-03T14:39:01.005Z,10.65
2023-01-03T14:41:27.569Z,5.40
2023-01-03T14:44:09.581Z,6.00
2023-01-03T14:46:38.150Z,14.00
2023-01-03T14:49:07.521Z,5.30
2023-01-03T14:51:36.931Z,6.38
2023-01-03T14:54:05.080Z,10.18
2023-01-03T14:56:32.281Z,5.15
2023-01-03T14:59:00.127Z,8.82
2023-01-03T15:01:28.772Z,5.32
2023-01-03T15:03:56.245Z,5.40
2023-01-03T15:06:24.935Z,6.80
2023-01-03T15:08:54.428Z,4.93
2023-01-03T15:11:30.071Z,8.75
2023-01-03T15:14:03.427Z,6.20
2023-01-03T15:16:42.064Z,5.78
2023-01-03T15:19:08.779Z,4.10
2023-01-03T15:21:35.543Z,5.35
2023-01-03T15:24:02.192Z,5.35
2023-01-03T15:26:44.084Z,5.35
2023-01-03T15:29:28.587Z,4.47
2023-01-03T15:31:55.424Z,7.50
2023-01-03T15:34:28.591Z,6.07
2023-01-03T15:37:01.761Z,4.95
2023-01-03T15:39:46.642Z,6.03
2023-01-03T15:45:24.517Z,6.95
2023-01-03T15:47:55.929Z,7.35
2023-01-03T15:50:27.422Z,7.65
2023-01-03T15:52:53.969Z,5.68
2023-01-03T15:55:20.581Z,9.82
2023-01-03T15:57:52.482Z,5.57
2023-01-03T16:00:22.682Z,12.23
2023-01-03T16:02:50.307Z,9.98
2023-01-03T16:05:22.022Z,11.30
2023-01-03T16:07:49.407Z,10.93
2023-01-03T16:10:16.096Z,7.35
2023-01-03T16:12:43.675Z,7.85
2023-01-03T16:15:22.296Z,10.13
2023-01-03T16:17:50.559Z,10.05
2023-01-03T16:20:18.938Z,10.00
2023-01-03T16:22:59.653Z,8.65
2023-01-03T16:25:28.744Z,8.55
2023-01-03T16:27:55.271Z,15.88
2023-01-03T16:30:21.836Z,12.27
2023-01-03T16:32:48.403Z,12.38
2023-01-03T16:35:17.841Z,19.08
2023-01-03T16:37:44.673Z,11.07
2023-01-03T16:40:17.019Z,12.88
2023-01-03T16:42:43.694Z,22.30
2023-01-03T16:45:10.762Z,15.32
2023-01-03T16:47:37.639Z,14.18
2023-01-03T16:50:07.935Z,13.68
2023-01-03T16:52:40.643Z,13.48
2023-01-03T16:55:29.914Z,9.70
2023-01-03T16:57:57.325Z,10.57
2023-01-03T17:00:26.740Z,11.73
2023-01-03T17:02:56.684Z,14.75
2023-01-03T17:05:23.602Z,19.58
2023-01-03T17:07:52.873Z,21.70
2023-01-03T17:10:40.294Z,18.88
2023-01-03T17:13:12.719Z,14.02
2023-01-03T17:15:41.338Z,14.15
2023-01-03T17:18:21.415Z,14.45
2023-01-03T17:21:02.193Z,15.52
2023-01-03T17:23:39.240Z,14.18
2023-01-03T17:26:06.121Z,23.23
2023-01-03T17:28:34.344Z,40.53
2023-01-03T17:31:01.446Z,30.23
2023-01-03T17:33:33.860Z,29.27
2023-01-03T17:36:00.937Z,26.23
2023-01-03T17:38:29.739Z,23.30
2023-01-03T17:40:57.316Z,23.98
2023-01-03T17:43:24.975Z,16.83
2023-01-03T17:46:20.635Z,22.08
2023-01-03T17:49:08.351Z,15.82
2023-01-03T17:51:35.019Z,16.00
2023-01-03T17:54:01.783Z,18.85
2023-01-03T17:56:29.620Z,24.33
2023-01-03T17:58:56.931Z,23.33
2023-01-03T18:01:23.584Z,27.38
2023-01-03T18:03:50.329Z,24.02
2023-01-03T18:06:24.050Z,27.33
2023-01-03T18:08:52.395Z,28.93
2023-01-03T18:11:27.098Z,29.20
2023-01-03T18:13:53.647Z,48.13
2023-01-03T18:16:22.833Z,53.72
2023-01-03T18:18:49.653Z,47.67
2023-01-03T18:21:19.209Z,33.88
2023-01-03T18:23:46.184Z,41.83
2023-01-03T18:26:16.298Z,39.40
2023-01-03T18:28:43.449Z,36.47
2023-01-03T18:31:15.465Z,32.85
2023-01-03T18:33:42.253Z,44.28
2023-01-03T18:36:24.805Z,33.58
2023-01-03T18:38:55.861Z,30.58
2023-01-03T18:41:27.239Z,32.08
2023-01-03T18:43:53.913Z,36.38
2023-01-03T18:46:21.614Z,36.38
2023-01-03T18:48:48.357Z,28.23
2023-01-03T18:51:16.774Z,29.08
2023-01-03T18:53:45.500Z,31.77
2023-01-03T18:56:36.177Z,31.77
2023-01-03T18:59:07.318Z,27.85
2023-01-03T19:01:34.506Z,25.80
2023-01-03T19:04:01.240Z,33.88
2023-01-03T19:06:33.806Z,27.30
2023-01-03T19:09:04.520Z,23.77
2023-01-03T19:11:34.322Z,31.80
2023-01-03T19:14:02.534Z,31.80
2023-01-03T19:16:31.786Z,31.45
2023-01-03T19:18:59.355Z,34.03
2023-01-03T19:21:31.586Z,41.67
2023-01-03T19:24:03.897Z,34.67
2023-01-03T19:26:36.408Z,27.48
2023-01-03T19:29:06.121Z,26.60
2023-01-03T19:31:41.967Z,23.40
2023-01-03T19:34:19.739Z,25.15
2023-01-03T19:36:47.362Z,23.80
2023-01-03T19:39:15.216Z,29.23
2023-01-03T19:42:05.878Z,25.05
2023-01-03T19:44:33.163Z,22.02
2023-01-03T19:47:00.715Z,28.80
2023-01-03T19:49:27.558Z,35.45
2023-01-03T19:51:56.759Z,26.65
2023-01-03T19:54:24.295Z,29.50
2023-01-03T19:57:02.111Z,20.50
2023-01-03T19:59:34.282Z,29.38
2023-01-03T20:04:49.526Z,25.00
2023-01-03T20:07:16.250Z,23.83
2023-01-03T20:09:42.832Z,22.45
2023-01-03T20:12:14.103Z,21.88
2023-01-03T20:14:43.841Z,24.02
2023-01-03T20:17:24.841Z,26.98
2023-01-03T20:19:52.605Z,27.77
2023-01-03T20:22:53.551Z,30.45
2023-01-03T20:25:21.359Z,27.92
2023-01-03T20:27:48.093Z,30.13
2023-01-03T20:30:18.050Z,29.88
2023-01-03T20:32:44.982Z,27.55
2023-01-03T20:35:55.967Z,23.98
2023-01-03T20:38:01.148Z,25.95
2023-01-03T20:40:27.742Z,27.38
2023-01-03T20:42:54.350Z,24.58
2023-01-03T20:45:21.778Z,23.75
2023-01-03T20:47:54.291Z,28.30
2023-01-03T20:50:28.826Z,29.17
2023-01-03T20:52:57.282Z,23.90
2023-01-03T20:55:25.768Z,26.50
2023-01-03T20:57:52.815Z,27.40
2023-01-03T21:00:26.590Z,30.27
2023-01-03T21:02:53.517Z,30.33
2023-01-03T21:05:21.195Z,24.52
2023-01-03T21:08:08.976Z,24.17
2023-01-03T21:10:41.984Z,24.77
2023-01-03T21:13:10.328Z,29.08
2023-01-03T21:15:38.089Z,35.45
2023-01-03T21:18:06.312Z,28.55
2023-01-03T21:20:33.384Z,23.10
2023-01-03T21:23:00.181Z,21.20
2023-01-03T21:25:32.855Z,24.73
2023-01-03T21:28:01.053Z,22.42
2023-01-03T21:30:30.101Z,25.35
2023-01-03T21:32:56.885Z,28.10
2023-01-03T21:35:24.481Z,22.58
2023-01-03T21:37:52.565Z,30.52
2023-01-03T21:40:28.339Z,28.27
2023-01-03T21:43:05.443Z,22.42
2023-01-03T21:45:39.244Z,28.10
2023-01-03T21:48:09.319Z,69.18
2023-01-03T21:50:39.584Z,33.30
2023-01-03T21:53:06.721Z,33.25
2023-01-03T21:55:33.690Z,35.72
2023-01-03T21:58:00.982Z,34.03
2023-01-03T22:00:27.600Z,30.42
2023-01-03T22:03:12.848Z,34.20
2023-01-03T22:05:39.545Z,38.55
2023-01-03T22:08:06.789Z,33.35
2023-01-03T22:10:34.326Z,42.05
2023-01-03T22:13:02.940Z,37.65
2023-01-03T22:15:29.463Z,39.33
2023-01-03T22:17:56.893Z,33.53
2023-01-03T22:20:25.817Z,39.38
2023-01-03T22:22:52.870Z,38.85
2023-01-03T22:25:21.567Z,42.90
2023-01-03T22:27:48.952Z,44.00
2023-01-03T22:30:18.107Z,49.35
2023-01-03T22:32:46.423Z,59.15
2023-01-03T22:35:16.386Z,59.13
2023-01-03T22:37:42.984Z,54.80
2023-01-03T22:40:13.068Z,47.42
2023-01-03T22:42:39.699Z,53.50
2023-01-03T22:45:07.145Z,57.47
2023-01-03T22:47:38.425Z,54.60
2023-01-03T22:50:06.619Z,55.20
2023-01-03T22:52:33.724Z,66.22
2023-01-03T22:55:00.540Z,58.17
2023-01-03T22:57:27.142Z,59.05
2023-01-03T22:59:53.679Z,64.18
2023-01-03T23:02:26.102Z,60.20
2023-01-03T23:04:52.822Z,67.20
2023-01-03T23:07:19.744Z,69.10
2023-01-03T23:09:46.369Z,55.95
2023-01-03T23:12:31.467Z,64.40
2023-01-03T23:17:43.244Z,65.38
2023-01-03T23:20:10.355Z,82.22
2023-01-03T23:22:36.888Z,60.90
2023-01-03T23:25:03.686Z,64.68
2023-01-03T23:27:30.539Z,60.85
2023-01-03T23:29:57.110Z,65.47
2023-01-03T23:32:23.672Z,61.85
2023-01-03T23:34:50.332Z,64.22
2023-01-03T23:37:16.880Z,54.35
2023-01-03T23:39:43.781Z,56.10
2023-01-03T23:42:10.415Z,54.70
2023-01-03T23:44:36.951Z,52.42
2023-01-03T23:47:09.259Z,49.92
2023-01-03T23:49:37.767Z,51.58
2023-01-03T23:52:04.434Z,55.25
2023-01-03T23:54:30.981Z,49.92
2023-01-03T23:56:57.541Z,43.58
2023-01-03T23:59:24.087Z,52.20
